Time;durP1;ratioP1;P1;durP2;ratioP2;P2;SDS_P1;SDS_P2;PMS_P1;PMS_P2;Temp;Humidity;BMP_temperature;BMP_pressure;BME280_temperature;BME280_humidity;BME280_pressure;Samples;Min_cycle;Max_cycle;Signal;HPM_P1;HPM_P2
2021/12/06 00:01:32;;;;;;;7.70;2.33;;;4.10;99.90;;;;;;5033219;28;20254;-66
2021/12/06 00:04:06;;;;;;;6.90;1.87;;;4.10;99.90;;;;;;5033354;28;20158;-66
2021/12/06 00:06:34;;;;;;;12.43;2.17;;;4.10;99.90;;;;;;5032430;28;20201;-69
2021/12/06 00:09:05;;;;;;;14.53;2.30;;;4.20;99.90;;;;;;5032869;28;20190;-66
2021/12/06 00:11:31;;;;;;;12.13;2.43;;;4.30;99.90;;;;;;5032493;28;20193;-66
2021/12/06 00:13:57;;;;;;;12.17;2.53;;;4.30;99.90;;;;;;5032105;28;20166;-66
2021/12/06 00:16:23;;;;;;;11.57;2.67;;;4.40;99.90;;;;;;5033260;28;20234;-66
2021/12/06 00:18:51;;;;;;;13.80;2.70;;;4.40;99.90;;;;;;5033459;28;20174;-65
2021/12/06 00:21:19;;;;;;;11.23;2.53;;;4.40;99.90;;;;;;5033473;28;20172;-66
2021/12/06 00:23:45;;;;;;;7.20;2.23;;;4.40;99.90;;;;;;5033102;28;20167;-66
2021/12/06 00:26:11;;;;;;;11.53;2.80;;;4.30;99.90;;;;;;5033183;28;20217;-66
2021/12/06 00:28:38;;;;;;;11.33;2.00;;;4.40;99.90;;;;;;5033110;28;20166;-66
2021/12/06 00:31:04;;;;;;;6.50;1.80;;;4.40;99.90;;;;;;5032660;28;20228;-66
2021/12/06 00:33:30;;;;;;;13.17;2.20;;;4.30;99.90;;;;;;5032254;28;20182;-66
2021/12/06 00:36:03;;;;;;;10.63;2.07;;;4.30;99.90;;;;;;5033132;28;20212;-67
2021/12/06 00:38:30;;;;;;;11.50;2.17;;;4.20;99.90;;;;;;5031889;28;20655;-66
2021/12/06 00:40:56;;;;;;;15.83;2.50;;;4.20;99.90;;;;;;5032423;28;20228;-66
2021/12/06 00:43:22;;;;;;;9.77;2.00;;;4.10;99.90;;;;;;5033042;28;20170;-67
2021/12/06 00:45:48;;;;;;;11.23;2.00;;;4.00;99.90;;;;;;5032933;28;20217;-67
2021/12/06 00:48:13;;;;;;;13.60;2.07;;;4.10;99.90;;;;;;5032980;28;20569;-67
2021/12/06 00:50:43;;;;;;;10.80;1.70;;;4.10;99.90;;;;;;5032851;28;20209;-67
2021/12/06 00:53:09;;;;;;;7.67;2.00;;;4.10;99.90;;;;;;5032793;28;20632;-67
2021/12/06 00:55:35;;;;;;;9.20;1.90;;;4.10;99.90;;;;;;5032520;28;20268;-67
2021/12/06 00:58:01;;;;;;;11.53;2.67;;;4.10;99.90;;;;;;5032675;28;20174;-67
2021/12/06 01:00:35;;;;;;;10.30;1.97;;;4.20;99.90;;;;;;5032762;28;20201;-67
2021/12/06 01:03:04;;;;;;;12.73;2.20;;;4.10;99.90;;;;;;5032690;28;20174;-66
2021/12/06 01:05:30;;;;;;;7.50;1.83;;;4.10;99.90;;;;;;5032550;28;20255;-65
2021/12/06 01:07:56;;;;;;;8.60;2.17;;;4.20;99.90;;;;;;5032300;28;20178;-65
2021/12/06 01:10:24;;;;;;;8.40;1.90;;;4.20;99.90;;;;;;5032619;28;20189;-65
2021/12/06 01:12:50;;;;;;;11.50;2.10;;;4.20;99.90;;;;;;5032193;28;20173;-64
2021/12/06 01:15:17;;;;;;;12.63;2.10;;;4.20;99.90;;;;;;5031704;28;20182;-65
2021/12/06 01:17:43;;;;;;;8.93;2.13;;;4.20;99.90;;;;;;5032232;28;20273;-65
2021/12/06 01:20:12;;;;;;;10.30;2.10;;;4.10;99.90;;;;;;5032392;28;20166;-64
2021/12/06 01:22:49;;;;;;;6.33;2.13;;;4.20;99.90;;;;;;5031864;28;20320;-64
2021/12/06 01:41:07;;;;;;;15.57;3.13;;;3.70;99.90;;;;;;5031703;28;20276;-63
2021/12/06 01:43:33;;;;;;;16.47;3.80;;;3.70;99.90;;;;;;5031283;28;20636;-64
2021/12/06 01:45:58;;;;;;;10.43;2.93;;;3.70;99.90;;;;;;5031626;28;20213;-64
2021/12/06 01:48:24;;;;;;;14.73;4.00;;;3.70;99.90;;;;;;5031457;28;20248;-63
2021/12/06 01:50:50;;;;;;;12.03;3.23;;;3.80;99.90;;;;;;5031712;28;20312;-63
2021/12/06 01:53:16;;;;;;;8.17;3.13;;;3.80;99.90;;;;;;5031594;28;20178;-63
2021/12/06 01:55:42;;;;;;;12.40;4.33;;;3.90;99.90;;;;;;5031130;28;20236;-64
2021/12/06 01:58:08;;;;;;;19.00;4.57;;;4.00;99.90;;;;;;5031559;28;20166;-64
2021/12/06 02:00:46;;;;;;;13.27;3.50;;;4.00;99.90;;;;;;5031520;28;20621;-63
2021/12/06 02:03:12;;;;;;;18.00;3.60;;;4.00;99.90;;;;;;5031578;28;20166;-61
2021/12/06 02:05:42;;;;;;;16.67;3.80;;;4.00;99.90;;;;;;5031157;28;20645;-62
2021/12/06 02:08:08;;;;;;;15.57;3.73;;;4.00;99.90;;;;;;5031120;28;20170;-61
2021/12/06 02:10:35;;;;;;;14.17;3.90;;;4.00;99.90;;;;;;5031038;28;20166;-61
2021/12/06 02:13:02;;;;;;;10.43;3.47;;;4.00;99.90;;;;;;5033992;28;20185;-61
2021/12/06 02:15:43;;;;;;;9.37;3.37;;;4.00;99.90;;;;;;5030788;28;20190;-61
2021/12/06 02:18:17;;;;;;;16.63;3.87;;;3.90;99.90;;;;;;5031070;28;20176;-61
2021/12/06 02:20:57;;;;;;;17.27;3.40;;;3.90;99.90;;;;;;5031046;28;20652;-62
2021/12/06 02:23:23;;;;;;;19.53;3.60;;;3.80;99.90;;;;;;5030810;28;20540;-62
2021/12/06 02:25:49;;;;;;;10.93;3.50;;;3.70;99.90;;;;;;5013105;28;20255;-62
2021/12/06 02:28:15;;;;;;;17.57;3.70;;;3.70;99.90;;;;;;5030911;28;20177;-62
2021/12/06 02:30:41;;;;;;;17.57;3.90;;;3.60;99.90;;;;;;5030813;28;20285;-62
2021/12/06 02:33:07;;;;;;;8.63;3.10;;;3.50;99.90;;;;;;5031199;28;20532;-62
2021/12/06 02:35:33;;;;;;;12.77;3.83;;;3.50;99.90;;;;;;5031093;28;20224;-62
2021/12/06 02:38:00;;;;;;;15.10;3.63;;;3.50;99.90;;;;;;5030387;28;20258;-62
2021/12/06 02:40:29;;;;;;;11.77;3.33;;;3.40;99.90;;;;;;5030621;28;20216;-62
2021/12/06 02:42:56;;;;;;;16.20;3.73;;;3.40;99.90;;;;;;5030908;28;20201;-62
2021/12/06 02:45:26;;;;;;;10.37;3.07;;;3.40;99.90;;;;;;5031024;28;20285;-64
2021/12/06 02:47:53;;;;;;;14.33;3.30;;;3.30;99.90;;;;;;5031009;28;20205;-63
2021/12/06 02:50:23;;;;;;;12.07;3.20;;;3.30;99.90;;;;;;5031093;28;20200;-62
2021/12/06 02:52:50;;;;;;;10.33;3.40;;;3.20;99.90;;;;;;5030761;28;20257;-62
2021/12/06 02:57:57;;;;;;;10.60;3.73;;;3.20;99.90;;;;;;5029973;28;20185;-64
2021/12/06 03:00:24;;;;;;;17.73;3.57;;;3.20;99.90;;;;;;5030581;28;20161;-63
2021/12/06 03:02:50;;;;;;;14.30;4.10;;;3.20;99.90;;;;;;5030898;28;20165;-63
2021/12/06 03:05:16;;;;;;;16.00;3.23;;;3.30;99.90;;;;;;5030015;28;20193;-64
2021/12/06 03:07:46;;;;;;;17.33;4.20;;;3.30;99.90;;;;;;5030234;28;20224;-64
2021/12/06 03:10:12;;;;;;;11.83;4.00;;;3.30;99.90;;;;;;5030710;28;20251;-64
2021/12/06 03:12:38;;;;;;;11.23;3.80;;;3.40;99.90;;;;;;5030576;28;20189;-63
2021/12/06 03:15:05;;;;;;;8.03;3.53;;;3.50;99.90;;;;;;5030258;28;20178;-65
2021/12/06 03:17:32;;;;;;;16.13;4.17;;;3.50;99.90;;;;;;5030560;28;20178;-63
2021/12/06 03:19:59;;;;;;;14.23;3.83;;;3.50;99.90;;;;;;5030382;28;20197;-66
2021/12/06 03:22:26;;;;;;;8.97;3.50;;;3.50;99.90;;;;;;5030134;28;20166;-64
2021/12/06 03:24:52;;;;;;;15.60;3.20;;;3.50;99.90;;;;;;5029954;28;20264;-64
2021/12/06 03:27:19;;;;;;;14.67;3.77;;;3.50;99.90;;;;;;5029831;28;20311;-64
2021/12/06 03:29:46;;;;;;;15.13;3.40;;;3.50;99.90;;;;;;5030324;28;20182;-64
2021/12/06 03:32:12;;;;;;;12.83;3.63;;;3.60;99.90;;;;;;5030059;28;20177;-62
2021/12/06 03:34:38;;;;;;;10.37;3.47;;;3.60;99.90;;;;;;5030554;28;20644;-62
2021/12/06 03:37:07;;;;;;;13.40;3.73;;;3.60;99.90;;;;;;5030522;28;20170;-64
2021/12/06 03:39:40;;;;;;;16.90;3.80;;;3.70;99.90;;;;;;5030540;28;20178;-64
2021/12/06 03:42:08;;;;;;;11.47;3.67;;;3.70;99.90;;;;;;5030020;28;20259;-64
2021/12/06 03:44:35;;;;;;;15.87;3.73;;;3.60;99.90;;;;;;5030246;28;20201;-64
2021/12/06 03:47:12;;;;;;;17.03;3.43;;;4.10;99.90;;;;;;5030343;28;20876;-65
2021/12/06 03:49:38;;;;;;;19.00;4.07;;;3.70;99.90;;;;;;5033172;28;20750;-65
2021/12/06 03:52:05;;;;;;;9.37;3.63;;;3.80;99.90;;;;;;5034015;28;20216;-65
2021/12/06 03:54:32;;;;;;;10.60;2.97;;;3.80;99.90;;;;;;5031186;28;20176;-64
2021/12/06 03:56:58;;;;;;;16.70;3.63;;;3.80;99.90;;;;;;5033800;28;20275;-64
2021/12/06 03:59:24;;;;;;;10.30;3.23;;;3.90;99.90;;;;;;5033750;28;20181;-65
2021/12/06 04:01:51;;;;;;;13.47;3.20;;;3.80;99.90;;;;;;5033623;28;20273;-64
2021/12/06 04:04:17;;;;;;;13.40;2.73;;;3.90;99.90;;;;;;5033600;28;20174;-64
2021/12/06 04:06:43;;;;;;;10.43;3.40;;;4.00;99.90;;;;;;5033729;28;20216;-64
2021/12/06 04:09:09;;;;;;;15.73;3.90;;;4.00;99.90;;;;;;5033389;28;20200;-64
2021/12/06 04:11:36;;;;;;;13.13;3.07;;;4.00;99.90;;;;;;5033280;28;20194;-63
2021/12/06 04:14:04;;;;;;;21.20;3.40;;;4.00;99.90;;;;;;5033273;28;20170;-63
2021/12/06 04:16:30;;;;;;;9.53;3.07;;;4.10;99.90;;;;;;5033548;28;20173;-63
2021/12/06 04:18:56;;;;;;;10.20;3.27;;;4.10;99.90;;;;;;5015506;28;20616;-63
2021/12/06 04:21:23;;;;;;;13.07;3.37;;;4.10;99.90;;;;;;5033522;28;20178;-62
2021/12/06 04:23:49;;;;;;;10.00;2.83;;;4.10;99.90;;;;;;5033483;28;20162;-62
2021/12/06 04:26:15;;;;;;;16.57;3.47;;;4.10;99.90;;;;;;5033200;28;20221;-62
2021/12/06 04:28:47;;;;;;;8.47;3.00;;;4.10;99.90;;;;;;5034671;28;20177;-63
2021/12/06 04:31:15;;;;;;;11.93;3.00;;;4.00;99.90;;;;;;5033128;28;20182;-62
2021/12/06 04:33:41;;;;;;;8.43;3.33;;;4.00;99.90;;;;;;5033029;28;20174;-62
2021/12/06 04:36:07;;;;;;;14.67;2.93;;;3.90;99.90;;;;;;5032961;28;20201;-62
2021/12/06 04:38:33;;;;;;;18.60;3.00;;;3.90;99.90;;;;;;5033189;28;20167;-62
2021/12/06 04:41:00;;;;;;;10.03;3.30;;;3.90;99.90;;;;;;5032605;28;20221;-63
2021/12/06 04:43:25;;;;;;;6.13;2.80;;;3.90;99.90;;;;;;5033063;28;20248;-63
2021/12/06 04:45:51;;;;;;;11.20;3.40;;;3.90;99.90;;;;;;5032949;28;20402;-62
2021/12/06 04:48:17;;;;;;;11.00;3.17;;;3.80;99.90;;;;;;5032916;28;20312;-63
2021/12/06 04:50:43;;;;;;;10.70;3.57;;;3.80;99.90;;;;;;5032965;28;20170;-62
2021/12/06 04:53:22;;;;;;;13.63;4.00;;;3.80;99.90;;;;;;5032727;28;20748;-63
2021/12/06 04:55:53;;;;;;;13.50;4.07;;;3.80;99.90;;;;;;5032570;28;20174;-63
2021/12/06 04:58:27;;;;;;;8.87;3.20;;;3.80;99.90;;;;;;5032794;28;20578;-63
2021/12/06 05:01:10;;;;;;;13.33;3.30;;;3.90;99.90;;;;;;5032000;28;20173;-65
2021/12/06 05:03:37;;;;;;;8.70;3.40;;;3.90;99.90;;;;;;5012866;28;20178;-63
2021/12/06 05:06:07;;;;;;;8.23;3.30;;;4.00;99.90;;;;;;5012836;28;20207;-63
2021/12/06 05:08:38;;;;;;;9.77;3.10;;;4.00;99.90;;;;;;5012554;28;20171;-63
2021/12/06 05:11:06;;;;;;;10.23;3.20;;;4.00;99.90;;;;;;5012867;28;20186;-63
2021/12/06 05:13:33;;;;;;;10.93;3.03;;;4.10;99.90;;;;;;5012667;28;20206;-62
2021/12/06 05:15:59;;;;;;;9.80;3.10;;;4.10;99.90;;;;;;5016655;28;20178;-62
2021/12/06 05:18:25;;;;;;;8.90;3.20;;;4.10;99.90;;;;;;5030554;28;20212;-63
2021/12/06 05:20:51;;;;;;;12.03;2.77;;;4.20;99.90;;;;;;5030908;28;20174;-62
2021/12/06 05:23:18;;;;;;;5.97;2.47;;;4.30;99.90;;;;;;5032258;28;20202;-62
2021/12/06 05:25:44;;;;;;;11.67;2.57;;;4.30;99.90;;;;;;5032153;28;20234;-62
2021/12/06 05:28:10;;;;;;;11.33;2.30;;;4.30;99.90;;;;;;5031783;28;20204;-63
2021/12/06 05:30:38;;;;;;;9.63;2.50;;;4.40;99.90;;;;;;5032059;28;20170;-63
2021/12/06 05:33:04;;;;;;;10.03;2.50;;;4.40;99.90;;;;;;5032008;28;20394;-63
2021/12/06 05:35:30;;;;;;;8.17;2.60;;;4.40;99.90;;;;;;5032039;28;20244;-63
2021/12/06 05:37:59;;;;;;;7.37;2.40;;;4.50;99.90;;;;;;5031968;28;20201;-63
2021/12/06 05:40:33;;;;;;;6.47;2.10;;;4.50;99.90;;;;;;5031837;28;20212;-63
2021/12/06 05:43:00;;;;;;;7.93;1.97;;;4.60;99.90;;;;;;5031644;28;20192;-63
2021/12/06 05:45:29;;;;;;;10.57;2.53;;;4.60;99.90;;;;;;5031777;28;20202;-63
2021/12/06 05:47:55;;;;;;;10.13;2.60;;;4.60;99.90;;;;;;5031626;28;20178;-63
2021/12/06 05:50:23;;;;;;;10.83;2.90;;;4.60;99.90;;;;;;5032044;28;20228;-64
2021/12/06 05:52:52;;;;;;;8.50;2.30;;;4.60;99.90;;;;;;5031775;28;20178;-64
2021/12/06 05:55:18;;;;;;;9.10;2.60;;;4.60;99.90;;;;;;5031127;28;20165;-64
2021/12/06 05:57:45;;;;;;;6.43;2.03;;;4.70;99.90;;;;;;5031656;28;20176;-64
2021/12/06 06:00:15;;;;;;;11.83;2.37;;;4.70;99.90;;;;;;5031534;28;20197;-64
2021/12/06 06:02:41;;;;;;;8.47;2.13;;;4.80;99.90;;;;;;5031227;28;20178;-64
2021/12/06 06:05:08;;;;;;;6.40;2.10;;;4.80;99.90;;;;;;5031151;28;20248;-64
2021/12/06 06:07:34;;;;;;;7.63;1.70;;;4.80;99.90;;;;;;5031420;28;20308;-64
2021/12/06 06:10:00;;;;;;;4.20;1.63;;;4.90;99.90;;;;;;5031239;28;20645;-64
2021/12/06 06:12:26;;;;;;;6.70;1.57;;;4.90;99.90;;;;;;5030547;28;20173;-64
2021/12/06 06:14:52;;;;;;;9.30;1.70;;;5.00;99.90;;;;;;5031263;28;20253;-64
2021/12/06 06:17:19;;;;;;;6.23;1.87;;;5.00;99.90;;;;;;5030497;28;20166;-64
2021/12/06 06:19:49;;;;;;;7.03;1.97;;;5.10;99.90;;;;;;5031027;28;20201;-64
2021/12/06 06:22:15;;;;;;;6.93;1.80;;;5.10;99.90;;;;;;5031262;28;20181;-64
2021/12/06 06:24:41;;;;;;;6.17;1.63;;;5.20;99.90;;;;;;5031045;28;20640;-64
2021/12/06 06:27:07;;;;;;;11.07;1.80;;;5.10;99.90;;;;;;5031065;28;20325;-64
2021/12/06 06:29:34;;;;;;;8.23;1.90;;;5.20;99.90;;;;;;5031131;28;20185;-64
2021/12/06 06:32:01;;;;;;;6.37;2.07;;;5.20;99.90;;;;;;5030908;28;20229;-64
2021/12/06 06:34:26;;;;;;;10.20;1.87;;;5.20;99.90;;;;;;5030090;28;20169;-64
2021/12/06 06:36:52;;;;;;;15.77;2.50;;;5.20;99.90;;;;;;5030759;28;20301;-63
2021/12/06 06:39:19;;;;;;;7.30;1.90;;;5.20;99.90;;;;;;5030065;28;20178;-63
2021/12/06 06:41:47;;;;;;;8.20;1.87;;;5.20;99.90;;;;;;5030731;28;20658;-63
2021/12/06 06:44:15;;;;;;;4.57;1.60;;;5.20;99.90;;;;;;5030577;28;20239;-63
2021/12/06 06:46:42;;;;;;;9.23;2.10;;;5.30;99.90;;;;;;5030873;28;20202;-63
2021/12/06 06:49:09;;;;;;;9.27;1.97;;;5.30;99.90;;;;;;5030885;28;20170;-63
2021/12/06 06:51:36;;;;;;;18.03;3.67;;;5.30;99.90;;;;;;5030903;28;20165;-62
2021/12/06 06:54:02;;;;;;;10.80;1.77;;;5.40;99.90;;;;;;5030847;28;20178;-62
2021/12/06 06:56:28;;;;;;;8.50;1.87;;;5.50;99.90;;;;;;5030975;28;20235;-62
2021/12/06 06:58:54;;;;;;;7.97;1.57;;;5.50;99.90;;;;;;5030788;28;20178;-62
2021/12/06 07:01:20;;;;;;;10.07;1.63;;;5.60;99.90;;;;;;5030309;28;20310;-62
2021/12/06 07:03:49;;;;;;;4.10;1.33;;;5.60;99.90;;;;;;5030896;28;20185;-62
2021/12/06 07:06:15;;;;;;;6.57;1.27;;;5.70;99.90;;;;;;5030456;28;20236;-62
2021/12/06 07:08:42;;;;;;;7.70;1.70;;;5.70;99.90;;;;;;5030361;28;20170;-62
2021/12/06 07:11:09;;;;;;;4.33;1.40;;;5.80;99.90;;;;;;5030377;28;20328;-63
2021/12/06 07:13:38;;;;;;;6.90;1.60;;;5.80;99.90;;;;;;5030793;28;20248;-62
2021/12/06 07:16:05;;;;;;;5.93;1.47;;;5.80;99.90;;;;;;5030840;28;20207;-63
2021/12/06 07:18:31;;;;;;;7.33;1.67;;;5.80;99.90;;;;;;5030396;28;20166;-63
2021/12/06 07:20:57;;;;;;;13.50;1.90;;;5.80;99.90;;;;;;5030697;28;20177;-62
2021/12/06 07:23:23;;;;;;;4.67;1.43;;;5.80;99.90;;;;;;5031409;28;20264;-62
2021/12/06 07:25:48;;;;;;;10.07;1.30;;;5.80;99.90;;;;;;5034188;28;20672;-63
2021/12/06 07:28:14;;;;;;;12.57;1.53;;;5.80;99.90;;;;;;5033861;28;20178;-63
2021/12/06 07:30:40;;;;;;;6.87;1.83;;;5.90;99.90;;;;;;5033916;28;20236;-63
2021/12/06 07:33:06;;;;;;;8.10;1.37;;;5.90;99.90;;;;;;5033962;28;20178;-63
2021/12/06 07:35:32;;;;;;;7.23;1.50;;;5.90;99.90;;;;;;5033978;28;20174;-65
2021/12/06 07:38:00;;;;;;;7.23;1.50;;;5.90;99.90;;;;;;5034075;28;20628;-66
2021/12/06 07:40:27;;;;;;;4.70;1.30;;;5.90;99.90;;;;;;5033739;28;20324;-66
2021/12/06 07:42:53;;;;;;;4.77;1.77;;;6.00;99.90;;;;;;5034062;28;20256;-66
2021/12/06 07:45:19;;;;;;;7.23;1.47;;;5.90;99.90;;;;;;5034001;28;20170;-67
2021/12/06 07:47:46;;;;;;;6.03;1.50;;;6.00;99.90;;;;;;5034010;28;20232;-64
2021/12/06 07:50:15;;;;;;;8.40;1.33;;;6.00;99.90;;;;;;5033594;28;20202;-64
2021/12/06 07:52:41;;;;;;;8.50;1.90;;;6.00;99.90;;;;;;5033440;28;20170;-67
2021/12/06 07:55:11;;;;;;;10.87;1.60;;;6.00;99.90;;;;;;5033206;28;20181;-69
2021/12/06 07:57:37;;;;;;;4.70;1.33;;;6.00;99.90;;;;;;5033843;28;20543;-69
2021/12/06 08:00:11;;;;;;;7.80;1.60;;;6.00;99.90;;;;;;5033916;28;20178;-68
2021/12/06 08:02:37;;;;;;;5.77;1.60;;;6.10;99.90;;;;;;5032849;28;20181;-71
2021/12/06 08:07:49;;;;;;;7.60;1.70;;;6.20;99.90;;;;;;5032152;28;20229;-71
2021/12/06 08:10:15;;;;;;;7.27;1.50;;;6.20;99.90;;;;;;5032282;28;20174;-70
2021/12/06 08:12:41;;;;;;;10.17;1.83;;;6.20;99.90;;;;;;5032212;28;20261;-71
2021/12/06 08:15:07;;;;;;;13.17;1.67;;;6.20;99.90;;;;;;5015577;28;20604;-71
2021/12/06 08:17:33;;;;;;;3.27;1.37;;;6.20;99.90;;;;;;5015867;28;20236;-70
2021/12/06 08:19:59;;;;;;;9.87;1.57;;;6.20;99.90;;;;;;5033167;28;20570;-69
2021/12/06 08:22:24;;;;;;;12.93;1.37;;;6.20;99.90;;;;;;5032009;28;20281;-71
2021/12/06 08:24:54;;;;;;;3.47;1.17;;;6.30;99.90;;;;;;5033085;28;20177;-71
2021/12/06 08:27:20;;;;;;;9.13;1.73;;;6.40;99.90;;;;;;5033197;28;20205;-70
2021/12/06 08:29:46;;;;;;;6.83;1.50;;;6.40;99.90;;;;;;5032906;28;20224;-73
2021/12/06 08:32:12;;;;;;;4.43;1.37;;;6.40;99.90;;;;;;5031879;28;20254;-71
2021/12/06 08:34:41;;;;;;;3.47;1.20;;;6.40;99.90;;;;;;5032196;28;20166;-74
2021/12/06 08:37:09;;;;;;;8.53;1.83;;;6.40;99.90;;;;;;5033262;28;20174;-73
2021/12/06 08:39:40;;;;;;;7.73;1.70;;;6.40;99.90;;;;;;5033116;28;20166;-70
2021/12/06 08:42:06;;;;;;;8.97;1.13;;;6.40;99.90;;;;;;5031756;28;20217;-71
2021/12/06 08:44:32;;;;;;;3.33;1.27;;;5.40;99.90;;;;;;5031889;28;20301;-72
2021/12/06 08:46:58;;;;;;;10.07;2.10;;;6.30;99.90;;;;;;5032144;28;20295;-73
2021/12/06 08:49:25;;;;;;;9.40;1.90;;;6.30;99.90;;;;;;5032058;28;20177;-71
2021/12/06 08:51:57;;;;;;;9.30;1.73;;;6.30;99.90;;;;;;5028418;28;20178;-72
2021/12/06 08:54:27;;;;;;;12.10;2.03;;;6.20;99.90;;;;;;5031559;28;20170;-74
2021/12/06 08:56:55;;;;;;;9.63;1.97;;;6.20;99.90;;;;;;5018024;28;20261;-64
2021/12/06 08:59:22;;;;;;;9.10;2.07;;;6.20;99.90;;;;;;5032063;28;20432;-65
2021/12/06 09:01:49;;;;;;;10.27;2.23;;;6.10;99.90;;;;;;5032341;28;20177;-60
2021/12/06 09:04:15;;;;;;;6.87;2.17;;;6.10;99.90;;;;;;5030422;28;20170;-62
2021/12/06 09:06:44;;;;;;;10.87;2.10;;;6.20;99.90;;;;;;5032215;28;20616;-62
2021/12/06 09:09:12;;;;;;;11.03;2.10;;;6.20;99.90;;;;;;5032283;28;20162;-62
2021/12/06 09:11:40;;;;;;;7.00;1.80;;;6.10;99.90;;;;;;5032209;28;20196;-65
2021/12/06 09:14:06;;;;;;;8.47;1.83;;;6.10;99.90;;;;;;5030192;28;20291;-64
2021/12/06 09:16:33;;;;;;;9.47;2.00;;;6.10;99.90;;;;;;5026589;28;20743;-66
2021/12/06 09:19:00;;;;;;;7.30;1.97;;;6.10;99.90;;;;;;5024194;28;20200;-66
2021/12/06 09:21:27;;;;;;;5.67;1.80;;;6.00;99.90;;;;;;5027484;28;20177;-64
2021/12/06 09:23:55;;;;;;;9.27;1.80;;;6.00;99.90;;;;;;5025681;28;20818;-65
2021/12/06 09:26:21;;;;;;;7.83;1.90;;;6.00;99.90;;;;;;5027382;28;20224;-65
2021/12/06 09:28:47;;;;;;;12.20;2.30;;;6.00;99.90;;;;;;5031130;28;20174;-64
2021/12/06 09:31:16;;;;;;;7.20;1.70;;;6.00;99.90;;;;;;5030554;28;20196;-72
2021/12/06 09:33:42;;;;;;;6.00;1.50;;;6.10;99.90;;;;;;5032780;28;20178;-68
2021/12/06 09:36:10;;;;;;;6.00;1.90;;;6.10;99.90;;;;;;5032166;28;20178;-68
2021/12/06 09:38:39;;;;;;;5.63;1.53;;;6.10;99.90;;;;;;5031829;28;20205;-68
2021/12/06 09:41:10;;;;;;;8.17;2.07;;;6.10;99.90;;;;;;5031510;28;20222;-67
2021/12/06 09:43:41;;;;;;;11.77;1.83;;;6.10;99.90;;;;;;5031859;28;20181;-69
2021/12/06 09:46:09;;;;;;;14.60;2.53;;;6.20;99.90;;;;;;5028666;28;20228;-68
2021/12/06 09:48:35;;;;;;;12.40;2.17;;;6.20;99.90;;;;;;5031332;28;20170;-68
2021/12/06 09:51:05;;;;;;;4.67;1.40;;;6.30;99.90;;;;;;5030577;28;20174;-68
2021/12/06 09:53:34;;;;;;;8.00;1.87;;;6.30;99.90;;;;;;5031622;28;20268;-69
2021/12/06 09:56:05;;;;;;;7.87;2.47;;;6.40;99.90;;;;;;5030541;28;20173;-68
2021/12/06 09:58:31;;;;;;;12.33;1.60;;;6.40;99.90;;;;;;5012819;28;20217;-68
2021/12/06 10:01:01;;;;;;;8.00;1.87;;;6.50;99.90;;;;;;5031203;28;20670;-68
2021/12/06 10:03:29;;;;;;;5.93;1.80;;;6.50;99.90;;;;;;5030989;28;20184;-68
2021/12/06 10:06:02;;;;;;;6.43;1.63;;;6.50;99.90;;;;;;5031207;28;20220;-68
2021/12/06 10:08:34;;;;;;;5.33;0.97;;;6.60;99.90;;;;;;5030965;28;20182;-68
2021/12/06 10:11:00;;;;;;;13.87;1.80;;;6.60;99.90;;;;;;5031157;28;20188;-68
2021/12/06 10:13:26;;;;;;;4.17;1.23;;;6.70;99.90;;;;;;5030938;28;20221;-69
2021/12/06 10:15:52;;;;;;;5.77;1.40;;;6.70;99.90;;;;;;5030407;28;20677;-68
2021/12/06 10:18:20;;;;;;;7.07;1.40;;;6.70;99.90;;;;;;5029063;28;20170;-68
2021/12/06 10:20:47;;;;;;;5.43;1.30;;;6.70;99.90;;;;;;5029082;28;20192;-68
2021/12/06 10:23:15;;;;;;;4.87;1.20;;;6.80;99.90;;;;;;5029226;28;20170;-68
2021/12/06 10:25:47;;;;;;;1.93;0.90;;;6.90;99.90;;;;;;5029197;28;20202;-68
2021/12/06 10:28:14;;;;;;;5.37;1.00;;;7.10;99.90;;;;;;5029112;28;20200;-68
2021/12/06 10:30:50;;;;;;;5.07;0.70;;;7.20;99.90;;;;;;5029736;28;20624;-68
2021/12/06 10:33:27;;;;;;;4.37;0.93;;;7.40;99.90;;;;;;5031037;28;20174;-68
2021/12/06 10:35:59;;;;;;;4.53;0.90;;;7.50;99.90;;;;;;5033203;28;20224;-69
2021/12/06 10:38:28;;;;;;;7.57;0.80;;;7.50;99.90;;;;;;5031809;28;20178;-68
2021/12/06 10:41:12;;;;;;;4.23;0.60;;;7.60;99.90;;;;;;5031011;28;20313;-65
2021/12/06 10:43:39;;;;;;;7.20;0.90;;;7.70;99.90;;;;;;5030984;28;20740;-64
2021/12/06 10:46:07;;;;;;;4.30;0.70;;;7.70;99.90;;;;;;5030486;28;20675;-63
2021/12/06 10:48:38;;;;;;;5.27;0.60;;;7.80;99.90;;;;;;5029532;28;20317;-64
2021/12/06 10:51:15;;;;;;;7.27;1.10;;;7.80;99.90;;;;;;5020250;28;20178;-64
2021/12/06 10:53:48;;;;;;;5.73;0.93;;;7.80;99.90;;;;;;5029852;28;20253;-64
2021/12/06 10:56:24;;;;;;;2.73;1.00;;;7.90;99.90;;;;;;5012287;28;20273;-64
2021/12/06 10:58:54;;;;;;;4.60;0.70;;;8.00;99.90;;;;;;5031490;28;20234;-64
2021/12/06 11:01:31;;;;;;;2.67;0.77;;;8.10;99.90;;;;;;5015711;28;20238;-64
2021/12/06 11:03:57;;;;;;;2.60;0.80;;;8.20;99.90;;;;;;5031124;28;20184;-65
2021/12/06 11:06:29;;;;;;;6.37;0.70;;;8.50;99.90;;;;;;5035469;28;20213;-65
2021/12/06 11:08:58;;;;;;;3.23;0.67;;;8.30;99.90;;;;;;5034417;28;20166;-62
2021/12/06 11:11:30;;;;;;;4.13;0.63;;;8.40;99.90;;;;;;5034612;28;20202;-63
2021/12/06 11:14:04;;;;;;;2.80;0.80;;;8.50;99.90;;;;;;5034158;28;20162;-64
2021/12/06 11:16:32;;;;;;;3.60;0.80;;;8.60;99.90;;;;;;5033918;28;20182;-64
2021/12/06 11:19:05;;;;;;;4.23;0.80;;;8.80;99.90;;;;;;5034159;28;20202;-64
2021/12/06 11:21:56;;;;;;;6.60;0.90;;;9.00;99.90;;;;;;5034215;28;20177;-64
2021/12/06 11:24:39;;;;;;;7.20;0.93;;;9.00;99.90;;;;;;5022094;28;20170;-64
2021/12/06 11:27:08;;;;;;;6.53;1.20;;;9.10;99.90;;;;;;5020871;28;20732;-64
2021/12/06 11:29:48;;;;;;;3.00;0.67;;;9.20;99.90;;;;;;5033754;28;20722;-63
2021/12/06 11:32:36;;;;;;;7.40;1.00;;;9.20;99.90;;;;;;5034075;28;20266;-65
2021/12/06 11:35:09;;;;;;;5.53;0.90;;;9.40;99.90;;;;;;5032451;28;20735;-64
2021/12/06 11:37:48;;;;;;;6.90;0.97;;;9.50;99.90;;;;;;5014538;28;20283;-64
2021/12/06 11:40:17;;;;;;;11.03;1.50;;;9.70;99.90;;;;;;5014434;28;20173;-65
2021/12/06 11:43:06;;;;;;;6.57;1.10;;;9.80;99.90;;;;;;5014087;28;20461;-65
2021/12/06 11:45:40;;;;;;;13.93;1.20;;;9.90;99.90;;;;;;5013827;28;20171;-65
2021/12/06 11:48:09;;;;;;;8.80;1.40;;;10.00;99.90;;;;;;5031846;28;20268;-65
2021/12/06 11:50:43;;;;;;;10.83;1.50;;;10.00;99.90;;;;;;5033839;28;20174;-65
2021/12/06 11:53:09;;;;;;;11.37;1.70;;;10.10;99.90;;;;;;5034036;28;20170;-64
2021/12/06 11:55:37;;;;;;;8.97;1.40;;;10.10;99.90;;;;;;5033978;28;20218;-65
2021/12/06 11:58:03;;;;;;;21.77;2.00;;;10.00;99.90;;;;;;5033318;28;20288;-66
2021/12/06 12:00:31;;;;;;;12.33;2.03;;;10.10;99.90;;;;;;5033674;28;20211;-65
2021/12/06 12:03:00;;;;;;;12.07;2.10;;;10.10;99.90;;;;;;5027250;28;20182;-66
2021/12/06 12:05:28;;;;;;;11.23;1.60;;;10.00;99.90;;;;;;5029289;28;20663;-65
2021/12/06 12:08:15;;;;;;;12.37;1.67;;;10.10;99.90;;;;;;5033424;28;20284;-65
2021/12/06 12:10:48;;;;;;;9.10;1.80;;;10.10;99.90;;;;;;5031984;28;20260;-76
2021/12/06 12:13:31;;;;;;;19.23;2.30;;;10.20;99.90;;;;;;5032972;28;20177;-71
2021/12/06 12:16:03;;;;;;;9.93;1.70;;;10.20;99.90;;;;;;5033325;28;20194;-65
2021/12/06 12:18:30;;;;;;;18.30;1.90;;;10.20;99.90;;;;;;5033419;28;20169;-65
2021/12/06 12:20:56;;;;;;;8.30;1.50;;;10.20;99.90;;;;;;5032999;28;20178;-64
2021/12/06 12:23:24;;;;;;;11.77;2.00;;;10.30;99.90;;;;;;5033253;28;20261;-64
2021/12/06 12:26:02;;;;;;;7.70;1.90;;;10.40;99.90;;;;;;5032157;28;20236;-62
2021/12/06 12:28:39;;;;;;;13.30;1.97;;;10.80;99.90;;;;;;5032997;28;20197;-65
2021/12/06 12:31:11;;;;;;;11.37;2.00;;;10.90;99.90;;;;;;5032758;28;20232;-64
2021/12/06 12:33:37;;;;;;;11.80;1.90;;;10.90;99.90;;;;;;5033035;28;20239;-64
2021/12/06 12:36:08;;;;;;;11.20;1.93;;;11.10;99.90;;;;;;5032876;28;20178;-64
2021/12/06 12:38:37;;;;;;;12.23;1.97;;;11.10;99.90;;;;;;5032983;28;20179;-64
2021/12/06 12:41:13;;;;;;;9.93;2.10;;;11.10;99.90;;;;;;5032181;28;20264;-64
2021/12/06 12:43:41;;;;;;;8.87;1.67;;;11.00;99.90;;;;;;5032100;28;20185;-64
2021/12/06 12:46:34;;;;;;;17.97;2.20;;;11.00;99.90;;;;;;5032416;28;20213;-64
2021/12/06 12:49:03;;;;;;;10.67;2.07;;;11.90;99.90;;;;;;5032729;28;20174;-64
2021/12/06 12:51:32;;;;;;;13.43;1.63;;;11.10;99.90;;;;;;5032727;28;20815;-64
2021/12/06 12:54:09;;;;;;;7.33;1.63;;;11.00;99.90;;;;;;5014550;28;20652;-63
2021/12/06 12:56:43;;;;;;;14.97;1.80;;;11.00;99.90;;;;;;5031958;28;20181;-66
2021/12/06 12:59:23;;;;;;;7.73;1.60;;;12.00;99.90;;;;;;5014922;28;20177;-65
2021/12/06 13:02:18;;;;;;;11.37;2.33;;;13.50;99.90;;;;;;5031037;28;20664;-66
2021/12/06 13:04:59;;;;;;;12.38;2.00;;;13.90;99.90;;;;;;5029044;28;20169;-66
2021/12/06 13:07:33;;;;;;;12.73;2.08;;;14.40;99.90;;;;;;5032369;28;20213;-66
2021/12/06 13:10:22;;;;;;;10.15;1.85;;;14.90;99.90;;;;;;5031697;28;20199;-66
2021/12/06 13:12:58;;;;;;;13.05;1.90;;;15.00;99.90;;;;;;5032057;28;20185;-66
2021/12/06 13:15:54;;;;;;;11.95;2.28;;;14.80;99.90;;;;;;5032396;28;20174;-66
2021/12/06 13:18:58;;;;;;;11.77;2.30;;;14.20;99.90;;;;;;5031880;28;20166;-66
2021/12/06 13:21:50;;;;;;;9.70;2.20;;;13.30;99.90;;;;;;5031692;28;20162;-66